Time;durP1;ratioP1;P1;durP2;ratioP2;P2;SDS_P1;SDS_P2;PMS_P1;PMS_P2;Temp;Humidity;BMP_temperature;BMP_pressure;BME280_temperature;BME280_humidity;BME280_pressure;Samples;Min_cycle;Max_cycle;Signal;HPM_P1;HPM_P2
2023/11/29 00:00:35;;;;;;;19.13;7.40;;;;;;;4.30;100.00;97999.89;123841;1102;104278;-82
2023/11/29 00:03:27;;;;;;;18.30;7.70;;;;;;;4.32;100.00;97990.44;123994;1102;104325;-81
2023/11/29 00:05:58;;;;;;;19.87;8.30;;;;;;;4.32;100.00;97996.49;123909;1102;104237;-79
2023/11/29 00:08:30;;;;;;;18.63;7.80;;;;;;;4.32;100.00;97995.63;123843;1102;104232;-80
2023/11/29 00:11:01;;;;;;;17.80;7.57;;;;;;;4.32;100.00;97993.89;123790;1102;104294;-81
2023/11/29 00:13:33;;;;;;;21.33;8.67;;;;;;;4.32;100.00;97999.09;123946;1099;104242;-80
2023/11/29 00:16:05;;;;;;;23.70;8.85;;;;;;;4.35;100.00;98008.67;124032;1100;104306;-80
2023/11/29 00:18:37;;;;;;;19.40;7.45;;;;;;;4.37;100.00;98008.70;123902;1099;104277;-80
2023/11/29 00:21:09;;;;;;;19.33;7.40;;;;;;;4.38;100.00;98015.62;123975;1099;104281;-78
2023/11/29 00:23:40;;;;;;;19.77;7.70;;;;;;;4.38;100.00;98013.92;123657;1102;104320;-78
2023/11/29 00:26:12;;;;;;;19.93;8.40;;;;;;;4.39;100.00;98018.25;123776;1102;104181;-79
2023/11/29 00:28:44;;;;;;;21.00;8.93;;;;;;;4.42;100.00;98026.11;123720;1102;104272;-78
2023/11/29 00:31:15;;;;;;;16.55;7.40;;;;;;;4.45;100.00;98010.59;123548;1102;104304;-78
2023/11/29 00:33:47;;;;;;;20.13;8.23;;;;;;;4.46;100.00;98014.09;123666;1102;104211;-78
2023/11/29 00:36:18;;;;;;;17.80;7.47;;;;;;;4.45;100.00;98015.78;123704;1102;104330;-79
2023/11/29 00:38:50;;;;;;;17.67;7.67;;;;;;;4.48;100.00;98002.86;123877;1100;104217;-78
2023/11/29 00:41:22;;;;;;;17.93;7.87;;;;;;;4.50;100.00;98002.89;123622;1102;104319;-78
2023/11/29 00:43:54;;;;;;;19.13;7.80;;;;;;;4.49;100.00;98003.76;123718;1099;104682;-79
2023/11/29 00:46:25;;;;;;;18.43;7.53;;;;;;;4.46;100.00;97999.37;123734;1102;104229;-79
2023/11/29 00:48:57;;;;;;;19.80;8.30;;;;;;;4.45;100.00;98005.40;123693;1099;104223;-78
2023/11/29 00:51:29;;;;;;;18.80;8.43;;;;;;;4.46;100.00;97996.77;123692;1099;104370;-78
2023/11/29 00:54:00;;;;;;;19.10;8.40;;;;;;;4.47;100.00;97989.84;123626;1099;104242;-79
2023/11/29 00:56:32;;;;;;;20.03;8.57;;;;;;;4.49;100.00;97995.97;123664;1102;104287;-78
2023/11/29 00:59:03;;;;;;;18.20;8.10;;;;;;;4.49;100.00;98007.22;124012;1102;104303;-80
2023/11/29 01:01:35;;;;;;;21.20;8.60;;;;;;;4.52;100.00;98010.71;123975;1101;104232;-80
2023/11/29 01:04:07;;;;;;;20.47;9.10;;;;;;;4.54;100.00;98009.05;123829;1098;104399;-81
2023/11/29 01:06:41;;;;;;;19.97;8.53;;;;;;;4.54;100.00;98022.03;123751;1099;104354;-80
2023/11/29 01:09:12;;;;;;;13.60;6.80;;;;;;;4.53;100.00;98021.13;123780;1099;104248;-80
2023/11/29 01:11:44;;;;;;;18.00;8.30;;;;;;;4.52;100.00;98029.79;123700;1102;104351;-80
2023/11/29 01:14:15;;;;;;;17.50;8.53;;;;;;;4.54;100.00;98035.88;123847;1099;104326;-80
2023/11/29 01:16:47;;;;;;;20.03;8.20;;;;;;;4.55;100.00;98053.23;123724;1102;104329;-79
2023/11/29 01:19:18;;;;;;;17.27;8.00;;;;;;;4.57;100.00;98040.27;123713;1101;104415;-81
2023/11/29 01:21:50;;;;;;;15.45;7.50;;;;;;;4.58;100.00;98010.84;123864;1102;104271;-77
2023/11/29 01:24:21;;;;;;;15.87;7.47;;;;;;;4.55;100.00;98024.66;123744;1102;104172;-78
2023/11/29 01:26:53;;;;;;;17.50;7.87;;;;;;;4.54;100.00;98041.08;123762;1102;104350;-79
2023/11/29 01:29:24;;;;;;;19.53;8.47;;;;;;;4.53;100.00;98064.41;123823;1102;104165;-79
2023/11/29 01:31:57;;;;;;;16.47;7.73;;;;;;;4.51;100.00;98066.98;123783;1100;104254;-80
2023/11/29 01:34:28;;;;;;;19.27;8.70;;;;;;;4.48;100.00;98065.19;123886;1102;104277;-80
2023/11/29 01:37:00;;;;;;;18.73;8.80;;;;;;;4.48;100.00;98057.39;123806;1102;104226;-80
2023/11/29 01:39:31;;;;;;;19.77;9.17;;;;;;;4.44;100.00;98052.11;123866;1102;104469;-82
2023/11/29 01:42:03;;;;;;;20.43;9.00;;;;;;;4.49;100.00;98056.56;123674;1102;104300;-79
2023/11/29 01:44:35;;;;;;;17.37;8.80;;;;;;;4.49;100.00;98046.17;123725;1099;104728;-80
2023/11/29 01:47:12;;;;;;;20.03;9.30;;;;;;;4.52;100.00;98037.58;123703;1099;104367;-83
2023/11/29 01:49:45;;;;;;;19.00;9.10;;;;;;;4.55;100.00;98041.94;123723;1102;104424;-79
2023/11/29 01:52:16;;;;;;;18.60;8.80;;;;;;;4.57;100.00;98038.54;123650;1099;104342;-79
2023/11/29 01:54:48;;;;;;;18.17;8.63;;;;;;;4.60;100.00;98056.78;123686;1102;104267;-78
2023/11/29 01:57:20;;;;;;;18.50;8.40;;;;;;;4.60;100.00;98059.38;123666;1100;104248;-79
2023/11/29 01:59:51;;;;;;;19.07;8.67;;;;;;;4.62;100.00;98049.89;123688;1101;104268;-80
2023/11/29 02:02:23;;;;;;;16.93;8.30;;;;;;;4.61;100.00;98053.35;123779;1100;104328;-80
2023/11/29 02:04:55;;;;;;;17.47;8.53;;;;;;;4.59;100.00;98064.55;123754;1099;104430;-80
2023/11/29 02:07:27;;;;;;;17.93;8.13;;;;;;;4.58;100.00;98067.98;123834;1099;104690;-80
2023/11/29 02:09:59;;;;;;;19.75;8.50;;;;;;;4.54;100.00;98069.64;123797;1099;104271;-80
2023/11/29 02:12:31;;;;;;;19.17;8.50;;;;;;;4.55;100.00;98075.70;123720;1102;104165;-79
2023/11/29 02:15:03;;;;;;;18.47;8.70;;;;;;;4.53;100.00;98085.20;123744;1102;104241;-80
2023/11/29 02:17:35;;;;;;;19.33;8.87;;;;;;;4.52;100.00;98093.81;123722;1102;104402;-79
2023/11/29 02:20:09;;;;;;;18.47;8.27;;;;;;;4.51;100.00;98100.75;123700;1102;104347;-80
2023/11/29 02:22:41;;;;;;;19.12;8.58;;;;;;;4.50;100.00;98093.78;123815;1101;104306;-79
2023/11/29 02:25:13;;;;;;;18.93;9.27;;;;;;;4.47;100.00;98097.22;123757;1099;104284;-79
2023/11/29 02:27:45;;;;;;;18.60;8.80;;;;;;;4.48;100.00;98095.48;123692;1102;104341;-79
2023/11/29 02:30:17;;;;;;;20.37;9.90;;;;;;;4.48;100.00;98105.88;123715;1100;104455;-78
2023/11/29 02:32:49;;;;;;;20.23;9.20;;;;;;;4.49;100.00;98097.25;123725;1099;104322;-79
2023/11/29 02:35:21;;;;;;;19.90;9.07;;;;;;;4.48;100.00;98109.34;123707;1099;104255;-79
2023/11/29 02:37:52;;;;;;;19.63;9.80;;;;;;;4.46;100.00;98111.03;123760;1100;104325;-79
2023/11/29 02:40:25;;;;;;;21.00;9.00;;;;;;;4.46;100.00;98116.23;123727;1102;104281;-79
2023/11/29 02:42:56;;;;;;;18.80;9.15;;;;;;;4.46;100.00;98105.84;123684;1102;104207;-79
2023/11/29 02:45:30;;;;;;;19.40;8.90;;;;;;;4.46;100.00;98116.23;123625;1100;104278;-79
2023/11/29 02:48:02;;;;;;;22.67;10.25;;;;;;;4.47;100.00;98114.50;123745;1100;104313;-79
2023/11/29 02:50:34;;;;;;;19.80;10.40;;;;;;;4.49;100.00;98115.42;123563;1099;104274;-80
2023/11/29 02:53:06;;;;;;;20.63;9.97;;;;;;;4.46;100.00;98121.42;123517;1100;104632;-79
2023/11/29 02:55:37;;;;;;;18.03;8.63;;;;;;;4.47;100.00;98127.48;123714;1099;104300;-79
2023/11/29 02:58:09;;;;;;;19.10;9.10;;;;;;;4.48;100.00;98124.05;123572;1102;104690;-83
2023/11/29 03:00:41;;;;;;;19.33;8.90;;;;;;;4.49;100.00;98126.68;123650;1102;104277;-78
2023/11/29 03:03:12;;;;;;;19.67;9.20;;;;;;;4.51;100.00;98129.31;123568;1102;104262;-79
2023/11/29 03:05:44;;;;;;;20.13;9.50;;;;;;;4.53;100.00;98131.94;123588;1102;104332;-79
2023/11/29 03:08:15;;;;;;;19.80;9.60;;;;;;;4.53;100.00;98134.55;123993;1099;104300;-79
2023/11/29 03:10:47;;;;;;;18.37;8.50;;;;;;;4.52;100.00;98138.87;123926;1099;104366;-79
2023/11/29 03:13:19;;;;;;;19.07;9.17;;;;;;;4.52;100.00;98140.56;123708;1099;104399;-79
2023/11/29 03:15:50;;;;;;;16.20;7.30;;;;;;;4.49;100.00;98146.59;123810;1099;104259;-79
2023/11/29 03:18:22;;;;;;;15.77;7.67;;;;;;;4.43;100.00;98147.32;123680;1099;104287;-79
2023/11/29 03:20:54;;;;;;;16.73;8.07;;;;;;;4.42;100.00;98142.09;123908;1099;104396;-79
2023/11/29 03:23:25;;;;;;;18.60;8.75;;;;;;;4.40;100.00;98136.86;123640;1102;104345;-79
2023/11/29 03:25:57;;;;;;;17.17;8.50;;;;;;;4.39;100.00;98139.42;124074;1099;104207;-79
2023/11/29 03:28:31;;;;;;;17.20;8.03;;;;;;;4.36;100.00;98142.82;123854;1099;104194;-78
2023/11/29 03:31:03;;;;;;;16.27;8.07;;;;;;;4.31;100.00;98152.23;123489;1099;104731;-79
2023/11/29 03:33:35;;;;;;;15.93;8.07;;;;;;;4.29;100.00;98153.93;123570;1099;104361;-77
2023/11/29 03:36:09;;;;;;;20.97;9.83;;;;;;;4.25;100.00;98167.67;123713;1099;104318;-78
2023/11/29 03:38:40;;;;;;;19.37;9.48;;;;;;;4.21;100.00;98169.33;123797;1099;104271;-78
2023/11/29 03:41:12;;;;;;;20.43;10.27;;;;;;;4.19;100.00;98170.13;123547;1099;104415;-78
2023/11/29 03:43:44;;;;;;;21.90;11.37;;;;;;;4.16;100.00;98172.64;123723;1099;104280;-78
2023/11/29 03:46:15;;;;;;;23.17;11.63;;;;;;;4.14;100.00;98185.58;123830;1098;104382;-79
2023/11/29 03:48:48;;;;;;;20.47;10.07;;;;;;;4.11;100.00;98181.22;124005;1099;104351;-79
2023/11/29 03:51:20;;;;;;;18.40;9.97;;;;;;;4.09;100.00;98194.98;123922;1099;104278;-80
2023/11/29 03:53:51;;;;;;;18.20;8.60;;;;;;;4.07;100.00;98194.08;123755;1099;104245;-77
2023/11/29 03:56:23;;;;;;;17.03;8.33;;;;;;;4.04;100.00;98204.39;123783;1099;104229;-79
2023/11/29 03:58:55;;;;;;;17.23;8.40;;;;;;;4.00;100.00;98198.22;123818;1099;117793;-79
2023/11/29 04:01:31;;;;;;;18.47;8.80;;;;;;;3.99;100.00;98201.67;124042;1099;104392;-79
2023/11/29 04:04:02;;;;;;;17.40;8.63;;;;;;;3.95;100.00;98205.89;123632;1099;104350;-77
2023/11/29 04:06:34;;;;;;;19.57;9.50;;;;;;;3.92;100.00;98205.81;123293;1099;104314;-78
2023/11/29 04:09:05;;;;;;;18.10;9.13;;;;;;;3.90;100.00;98212.69;123811;1099;104826;-78
2023/11/29 04:11:37;;;;;;;19.53;9.47;;;;;;;3.86;100.00;98221.22;123730;1099;104255;-79
2023/11/29 04:14:10;;;;;;;18.87;9.07;;;;;;;3.83;100.00;98236.70;123726;1099;104344;-78
2023/11/29 04:16:41;;;;;;;18.80;9.43;;;;;;;3.81;100.00;98253.09;123606;1099;104326;-78
2023/11/29 04:19:13;;;;;;;19.23;9.47;;;;;;;3.77;100.00;98250.42;124047;1099;110681;-79
2023/11/29 04:21:45;;;;;;;19.07;9.27;;;;;;;3.74;100.00;98252.03;124095;1099;104242;-78
2023/11/29 04:24:17;;;;;;;18.90;9.25;;;;;;;3.71;100.00;98271.00;123755;1099;104654;-78
2023/11/29 04:26:49;;;;;;;21.17;10.43;;;;;;;3.70;100.00;98277.02;123443;1099;104434;-77
2023/11/29 04:29:20;;;;;;;20.37;10.07;;;;;;;3.70;100.00;98271.83;123426;1099;104364;-77
2023/11/29 04:31:52;;;;;;;21.70;9.80;;;;;;;3.69;100.00;98271.79;123412;1099;104431;-78
2023/11/29 04:34:24;;;;;;;20.23;9.80;;;;;;;3.68;100.00;98275.24;123586;1099;104341;-78
2023/11/29 04:36:56;;;;;;;19.97;9.47;;;;;;;3.67;100.00;98274.34;123854;1099;104316;-79
2023/11/29 04:39:28;;;;;;;19.97;9.83;;;;;;;3.69;100.00;98285.63;123822;1099;104312;-79
2023/11/29 04:42:00;;;;;;;20.80;9.77;;;;;;;3.66;100.00;98284.67;123873;1099;104242;-78
2023/11/29 04:44:32;;;;;;;20.00;9.73;;;;;;;3.64;100.00;98288.95;123562;1099;104281;-79
2023/11/29 04:47:05;;;;;;;19.47;9.83;;;;;;;3.63;100.00;98300.15;123538;1099;104421;-78
2023/11/29 04:49:36;;;;;;;19.75;9.60;;;;;;;3.62;100.00;98301.01;123842;1099;104379;-79
2023/11/29 04:52:09;;;;;;;19.87;9.57;;;;;;;3.59;100.00;98307.84;123718;1099;104374;-76
2023/11/29 04:54:40;;;;;;;19.27;9.90;;;;;;;3.60;100.00;98319.98;123658;1099;104257;-76
2023/11/29 04:57:12;;;;;;;17.33;8.87;;;;;;;3.58;100.00;98326.85;123768;1099;104650;-78
2023/11/29 04:59:43;;;;;;;19.63;9.90;;;;;;;3.58;100.00;98325.95;123630;1099;104245;-80
2023/11/29 05:02:15;;;;;;;19.55;9.45;;;;;;;3.59;100.00;98335.50;123857;1099;104348;-77
2023/11/29 05:04:46;;;;;;;20.60;9.27;;;;;;;3.56;100.00;98338.87;123301;1099;104319;-77
2023/11/29 05:07:18;;;;;;;17.23;8.43;;;;;;;3.54;100.00;98345.74;123553;1099;104245;-78
2023/11/29 05:09:53;;;;;;;18.03;8.63;;;;;;;3.52;100.00;98354.30;123664;1099;104284;-79
2023/11/29 05:12:25;;;;;;;19.37;9.23;;;;;;;3.49;100.00;98365.48;123699;1099;104363;-80
2023/11/29 05:14:56;;;;;;;19.33;9.00;;;;;;;3.47;100.00;98363.66;123513;1099;104351;-79
2023/11/29 05:17:28;;;;;;;18.80;9.20;;;;;;;3.46;100.00;98378.36;123811;1099;104401;-77
2023/11/29 05:20:01;;;;;;;18.40;9.20;;;;;;;3.41;100.00;98392.87;123701;1099;104249;-76
2023/11/29 05:22:33;;;;;;;19.53;9.33;;;;;;;3.36;100.00;98392.73;123554;1099;104293;-76
2023/11/29 05:25:06;;;;;;;21.23;10.43;;;;;;;3.32;100.00;98397.77;123845;1099;104255;-78
2023/11/29 05:27:37;;;;;;;21.05;10.70;;;;;;;3.30;100.00;98404.64;123742;1099;104332;-78
2023/11/29 05:30:10;;;;;;;21.90;11.27;;;;;;;3.27;100.00;98425.28;123601;1099;104246;-79
2023/11/29 05:32:42;;;;;;;22.60;11.17;;;;;;;3.20;100.00;98427.67;124067;1099;104248;-80
2023/11/29 05:35:14;;;;;;;21.47;10.47;;;;;;;3.18;100.00;98436.22;124484;1099;104348;-78
2023/11/29 05:37:45;;;;;;;22.35;11.15;;;;;;;3.18;100.00;98447.49;124314;1099;104274;-76
2023/11/29 05:40:20;;;;;;;24.30;12.45;;;;;;;3.16;100.00;98454.31;123941;1099;104357;-77
2023/11/29 05:42:52;;;;;;;22.17;10.93;;;;;;;3.12;100.00;98456.79;123866;1099;104363;-78
2023/11/29 05:45:26;;;;;;;25.77;12.40;;;;;;;3.09;100.00;98462.74;124484;1099;104274;-78
2023/11/29 05:47:58;;;;;;;24.60;13.00;;;;;;;3.05;100.00;98464.36;124173;1099;104261;-77
2023/11/29 05:50:30;;;;;;;26.67;14.40;;;;;;;3.04;100.00;98462.59;124751;1099;104355;-78
2023/11/29 05:53:01;;;;;;;25.07;12.73;;;;;;;3.04;100.00;98454.81;124148;1099;104364;-78
2023/11/29 05:55:34;;;;;;;25.07;13.00;;;;;;;3.04;100.00;98477.27;123956;1099;104290;-79
2023/11/29 05:58:10;;;;;;;25.50;12.37;;;;;;;3.07;100.00;98487.73;124921;1099;104201;-77
2023/11/29 06:00:44;;;;;;;28.13;14.43;;;;;;;3.06;100.00;98484.24;124248;1099;104240;-78
2023/11/29 06:03:16;;;;;;;24.83;13.00;;;;;;;3.06;100.00;98502.38;123876;1099;104232;-75
2023/11/29 06:05:48;;;;;;;25.20;13.00;;;;;;;3.06;100.00;98501.52;124219;1099;104293;-78
2023/11/29 06:08:20;;;;;;;25.90;12.87;;;;;;;3.07;100.00;98500.69;124009;1099;104272;-77
2023/11/29 06:10:52;;;;;;;23.90;13.30;;;;;;;3.06;100.00;98509.28;124852;1099;104715;-80
2023/11/29 06:13:25;;;;;;;24.67;13.10;;;;;;;3.09;100.00;98524.94;124785;1099;104198;-83
2023/11/29 06:15:58;;;;;;;26.63;12.13;;;;;;;3.02;100.00;98522.95;124344;1100;104251;-77
2023/11/29 06:18:29;;;;;;;27.20;13.30;;;;;;;2.99;100.00;98543.58;124919;1099;104338;-78
2023/11/29 06:21:04;;;;;;;24.00;14.23;;;;;;;2.95;100.00;98541.73;124323;1099;104060;-77
2023/11/29 06:23:36;;;;;;;25.90;13.37;;;;;;;2.94;100.00;98555.50;124944;1099;102849;-79
2023/11/29 06:26:11;;;;;;;26.43;14.30;;;;;;;2.92;100.00;98547.67;125373;1099;104252;-81
2023/11/29 06:28:48;;;;;;;29.33;13.87;;;;;;;2.96;100.00;98566.79;125043;1099;104258;-78
2023/11/29 06:31:20;;;;;;;27.30;14.43;;;;;;;2.96;100.00;98567.70;125162;1099;104245;-78
2023/11/29 06:33:54;;;;;;;26.53;13.77;;;;;;;2.98;100.00;98567.75;124611;1099;104223;-79
2023/11/29 06:36:28;;;;;;;27.00;14.30;;;;;;;2.97;100.00;98592.75;126951;1099;101547;-80
2023/11/29 06:39:00;;;;;;;26.63;14.40;;;;;;;2.96;100.00;98596.20;126742;1098;101846;-77
2023/11/29 06:41:32;;;;;;;25.80;14.70;;;;;;;2.94;100.00;98595.23;124569;1099;104185;-77
2023/11/29 06:44:04;;;;;;;25.03;13.13;;;;;;;2.91;100.00;98608.08;124966;1098;104300;-78
2023/11/29 06:46:39;;;;;;;28.37;14.47;;;;;;;2.86;100.00;98613.09;125132;1099;104159;-77
2023/11/29 06:49:14;;;;;;;25.63;14.17;;;;;;;2.87;100.00;98632.14;125273;1099;104194;-79
2023/11/29 06:51:49;;;;;;;26.68;14.35;;;;;;;2.86;100.00;98633.83;125174;1099;104182;-79
2023/11/29 06:54:21;;;;;;;28.53;15.07;;;;;;;2.86;100.00;98644.19;124712;1099;104245;-77
2023/11/29 06:56:53;;;;;;;25.63;14.40;;;;;;;2.84;100.00;98663.98;124905;1099;103353;-76
2023/11/29 06:59:25;;;;;;;30.00;14.90;;;;;;;2.83;100.00;98662.20;124914;1099;104335;-77
2023/11/29 07:01:57;;;;;;;25.13;14.27;;;;;;;2.80;100.00;98672.45;125082;1098;104203;-76
2023/11/29 07:04:29;;;;;;;24.73;13.53;;;;;;;2.77;100.00;98676.65;124914;1099;104153;-78
2023/11/29 07:07:04;;;;;;;26.57;13.67;;;;;;;2.76;100.00;98686.14;125326;1099;104293;-77
2023/11/29 07:09:45;;;;;;;29.73;15.47;;;;;;;2.78;100.00;98693.97;124920;1099;102565;-80
2023/11/29 07:12:16;;;;;;;25.80;14.43;;;;;;;2.87;100.00;98699.49;124730;1099;104302;-79
2023/11/29 07:14:54;;;;;;;26.47;13.93;;;;;;;2.95;100.00;98705.83;124642;1100;104178;-81
2023/11/29 07:17:25;;;;;;;28.53;15.13;;;;;;;2.97;100.00;98705.89;125102;1099;104255;-78
2023/11/29 07:20:00;;;;;;;27.10;14.43;;;;;;;2.99;100.00;98712.00;124841;1099;104232;-79
2023/11/29 07:22:34;;;;;;;27.13;14.30;;;;;;;3.01;100.00;98723.33;125052;1099;104376;-79
2023/11/29 07:25:07;;;;;;;27.43;14.60;;;;;;;3.01;100.00;98731.10;125014;1099;104219;-78
2023/11/29 07:27:40;;;;;;;26.97;13.90;;;;;;;3.08;100.00;98739.98;125249;1099;102983;-80
2023/11/29 07:30:13;;;;;;;25.67;13.23;;;;;;;3.08;100.00;98735.66;124740;1099;104154;-80
2023/11/29 07:32:47;;;;;;;26.13;14.23;;;;;;;3.09;100.00;98747.81;124639;1099;104325;-79
2023/11/29 07:35:24;;;;;;;25.90;14.57;;;;;;;3.13;100.00;98760.07;125214;1099;104451;-78
2023/11/29 07:37:56;;;;;;;26.70;14.10;;;;;;;3.12;100.00;98763.47;125282;1099;102881;-77
2023/11/29 07:40:32;;;;;;;26.95;14.45;;;;;;;3.16;100.00;98774.83;125498;1099;103309;-78
2023/11/29 07:43:04;;;;;;;26.17;14.50;;;;;;;3.15;100.00;98781.73;125450;1099;103317;-78
2023/11/29 07:45:36;;;;;;;24.63;14.27;;;;;;;3.14;100.00;98802.41;125048;1098;104319;-78
2023/11/29 07:48:08;;;;;;;25.17;13.67;;;;;;;3.16;100.00;98804.21;125114;1099;104249;-76
2023/11/29 07:50:40;;;;;;;24.93;14.20;;;;;;;3.19;100.00;98806.05;125312;1099;102362;-79
2023/11/29 07:53:14;;;;;;;24.97;13.17;;;;;;;3.22;100.00;98817.41;125142;1099;104214;-78
2023/11/29 07:55:46;;;;;;;26.17;14.33;;;;;;;3.24;100.00;98836.52;124934;1099;104240;-80
2023/11/29 07:58:24;;;;;;;24.77;14.00;;;;;;;3.29;100.00;98838.38;125163;1099;104171;-81
2023/11/29 08:00:55;;;;;;;26.20;14.40;;;;;;;3.35;100.00;98849.89;125210;1099;102626;-79
2023/11/29 08:03:27;;;;;;;26.20;14.23;;;;;;;3.42;100.00;98848.40;125020;1099;102946;-77
2023/11/29 08:06:00;;;;;;;24.97;13.97;;;;;;;3.45;100.00;98852.83;125183;1099;103050;-78
2023/11/29 08:08:32;;;;;;;25.50;13.40;;;;;;;3.53;100.00;98864.36;125043;1099;104265;-75
2023/11/29 08:11:06;;;;;;;25.03;13.97;;;;;;;3.55;100.00;98879.16;125486;1099;104287;-75
2023/11/29 08:13:40;;;;;;;23.93;13.03;;;;;;;3.53;100.00;98885.98;125070;1099;102922;-76
2023/11/29 08:16:13;;;;;;;25.70;13.07;;;;;;;3.50;100.00;98885.87;125138;1099;104331;-76
2023/11/29 08:18:48;;;;;;;23.93;13.23;;;;;;;3.52;100.00;98894.61;125252;1099;102723;-76
2023/11/29 08:21:25;;;;;;;22.77;12.27;;;;;;;3.55;100.00;98907.70;124614;1100;104219;-76
2023/11/29 08:23:57;;;;;;;23.33;12.60;;;;;;;3.57;100.00;98910.34;124850;1099;104179;-74
2023/11/29 08:29:19;;;;;;;22.07;12.07;;;;;;;3.62;100.00;98898.42;125118;1099;103478;-78
2023/11/29 08:32:08;;;;;;;21.87;12.33;;;;;;;3.65;100.00;98910.64;125115;1098;102492;-77
2023/11/29 08:35:09;;;;;;;22.73;12.30;;;;;;;3.74;100.00;98918.73;125726;1099;110652;-75
2023/11/29 08:37:43;;;;;;;22.40;12.83;;;;;;;3.82;100.00;98914.74;125189;1099;103125;-74
2023/11/29 08:40:17;;;;;;;22.27;11.97;;;;;;;3.97;100.00;98919.59;125406;1099;104226;-80
2023/11/29 08:43:03;;;;;;;22.60;12.63;;;;;;;4.24;100.00;98930.10;125732;1099;104182;-77
2023/11/29 08:45:34;;;;;;;23.45;12.90;;;;;;;4.34;100.00;98922.64;125397;1099;103168;-78
2023/11/29 08:48:10;;;;;;;22.17;11.60;;;;;;;4.39;100.00;98934.94;125428;1099;104727;-77
2023/11/29 08:50:42;;;;;;;18.15;9.05;;;;;;;4.32;100.00;98933.84;125391;1099;102521;-78
2023/11/29 08:53:14;;;;;;;18.03;9.40;;;;;;;4.16;100.00;98935.84;125402;1099;104203;-77
2023/11/29 08:55:46;;;;;;;18.27;9.40;;;;;;;4.10;100.00;98937.39;125673;1099;102619;-81
2023/11/29 08:58:21;;;;;;;19.30;10.50;;;;;;;4.12;99.64;98945.23;124879;1099;104198;-80
2023/11/29 09:01:03;;;;;;;18.10;9.00;;;;;;;4.01;97.99;98943.97;125085;1099;102613;-78
2023/11/29 09:03:39;;;;;;;19.23;9.97;;;;;;;3.90;97.72;98933.19;124795;1099;104256;-77
2023/11/29 09:06:13;;;;;;;18.73;9.43;;;;;;;3.82;98.24;98944.97;125338;1099;104223;-80
2023/11/29 09:08:45;;;;;;;18.47;9.77;;;;;;;3.81;99.83;98941.50;125201;1099;104159;-79
2023/11/29 09:11:19;;;;;;;19.03;10.10;;;;;;;3.87;99.62;98943.45;126184;1099;104198;-78
2023/11/29 09:13:53;;;;;;;18.80;9.93;;;;;;;3.99;99.88;98953.39;125276;1099;104258;-77
2023/11/29 09:16:28;;;;;;;17.27;9.17;;;;;;;4.08;100.00;98966.70;124749;1099;102899;-76
2023/11/29 09:19:03;;;;;;;20.30;9.97;;;;;;;4.08;98.12;98969.30;126161;1099;102785;-79
2023/11/29 09:21:41;;;;;;;19.80;9.87;;;;;;;4.03;97.65;98983.84;125097;1099;102643;-78
2023/11/29 09:24:14;;;;;;;18.83;9.37;;;;;;;4.00;97.83;98989.78;124768;1099;104328;-77
2023/11/29 09:26:46;;;;;;;20.60;10.30;;;;;;;3.94;97.49;98997.34;124820;1099;104217;-77
2023/11/29 09:29:21;;;;;;;21.07;10.70;;;;;;;3.92;99.06;98989.49;125002;1099;104278;-78
2023/11/29 09:31:59;;;;;;;20.63;10.27;;;;;;;4.01;98.32;98985.50;125275;1099;104351;-79
2023/11/29 09:34:36;;;;;;;20.27;10.47;;;;;;;3.97;96.75;98966.31;124418;1099;104246;-78
2023/11/29 09:37:12;;;;;;;20.23;10.50;;;;;;;4.22;98.53;98993.18;124520;1099;104343;-78
2023/11/29 09:39:46;;;;;;;20.07;10.60;;;;;;;4.29;94.88;98990.86;126257;1099;102522;-79
2023/11/29 09:42:20;;;;;;;22.45;11.43;;;;;;;4.28;95.89;98999.47;126246;1099;102560;-79
2023/11/29 09:44:56;;;;;;;20.83;10.30;;;;;;;4.25;95.70;98994.17;126886;1099;102866;-79
2023/11/29 09:47:28;;;;;;;21.73;11.07;;;;;;;4.22;94.55;98988.86;126873;1099;102914;-79
2023/11/29 09:50:00;;;;;;;20.70;10.87;;;;;;;4.14;94.11;98986.02;126975;1098;101921;-77
2023/11/29 09:52:34;;;;;;;21.70;11.50;;;;;;;4.11;94.36;98995.37;126995;1098;101817;-76
2023/11/29 09:55:06;;;;;;;;;;;;;;;4.08;95.79;99003.05;126994;1098;101958;-82
2023/11/29 09:57:38;;;;;;;22.87;11.20;;;;;;;4.04;93.70;99009.84;126357;1099;103162;-80
2023/11/29 10:00:14;;;;;;;22.83;12.07;;;;;;;4.01;92.78;99012.33;127037;1098;102611;-80
2023/11/29 10:02:48;;;;;;;20.30;10.53;;;;;;;4.00;95.37;99018.33;126344;1099;102593;-78
2023/11/29 10:05:23;;;;;;;23.67;10.93;;;;;;;4.01;93.89;99025.30;126953;1099;102371;-79
2023/11/29 10:07:54;;;;;;;22.75;11.48;;;;;;;3.96;92.08;99022.53;127101;1098;101803;-83
2023/11/29 10:10:34;;;;;;;22.63;10.87;;;;;;;3.95;92.80;99025.95;127023;1098;102934;-76
2023/11/29 10:13:08;;;;;;;20.43;10.83;;;;;;;3.96;91.81;99027.73;126924;1098;102598;-79
2023/11/29 10:15:44;;;;;;;20.93;10.73;;;;;;;4.00;91.48;99022.65;126819;1099;102808;-77
2023/11/29 10:18:36;;;;;;;20.97;9.73;;;;;;;3.96;92.02;99019.94;126088;1099;102253;-75
2023/11/29 10:21:08;;;;;;;22.77;10.23;;;;;;;4.00;91.96;99020.05;126141;1099;101851;-80
2023/11/29 10:23:44;;;;;;;21.70;10.47;;;;;;;3.98;89.79;99032.10;126928;1098;102638;-76
2023/11/29 10:26:17;;;;;;;20.70;10.67;;;;;;;3.93;89.89;99035.39;126886;1098;102864;-77
2023/11/29 10:28:54;;;;;;;19.30;9.67;;;;;;;3.89;88.31;99038.69;126757;1099;101781;-77
2023/11/29 10:34:48;;;;;;;19.87;10.17;;;;;;;3.84;89.09;99057.52;126816;1098;101447;-76
2023/11/29 10:37:20;;;;;;;21.10;11.43;;;;;;;3.85;90.85;99072.23;126862;1099;118651;-81
2023/11/29 10:39:56;;;;;;;22.23;11.07;;;;;;;3.89;89.10;99066.36;126884;1099;101960;-76
2023/11/29 10:42:32;;;;;;;22.83;10.67;;;;;;;3.88;88.01;99078.45;126828;1099;102002;-78
2023/11/29 10:45:06;;;;;;;21.37;10.30;;;;;;;3.84;86.20;99075.67;126186;1099;102447;-76
2023/11/29 10:47:49;;;;;;;21.97;10.80;;;;;;;3.80;87.97;99081.56;126852;1099;101400;-75
2023/11/29 10:50:24;;;;;;;21.90;10.80;;;;;;;3.80;87.52;99094.53;127014;1098;101952;-79
2023/11/29 10:52:59;;;;;;;21.33;11.53;;;;;;;3.81;87.20;99104.97;126950;1098;102265;-79
2023/11/29 10:55:39;;;;;;;21.33;9.93;;;;;;;3.82;86.01;99108.44;126801;1098;101770;-80
2023/11/29 10:58:24;;;;;;;21.40;9.83;;;;;;;3.78;84.62;99105.73;126299;1099;110194;-78
2023/11/29 11:01:00;;;;;;;20.23;10.60;;;;;;;3.76;87.33;99124.67;126812;1098;102598;-79
2023/11/29 11:03:43;;;;;;;21.23;10.10;;;;;;;3.80;87.79;99136.05;126841;1099;103498;-83
2023/11/29 11:06:37;;;;;;;21.17;10.48;;;;;;;3.81;87.67;99140.42;126842;1099;102797;-79
2023/11/29 11:09:40;;;;;;;21.20;10.90;;;;;;;3.83;86.95;99159.53;126893;1099;102504;-79
2023/11/29 11:12:37;;;;;;;22.37;10.83;;;;;;;3.84;86.68;99162.19;126781;1099;102350;-79
2023/11/29 11:15:14;;;;;;;20.63;10.17;;;;;;;3.83;87.09;99162.13;126888;1099;102614;-78
2023/11/29 11:18:12;;;;;;;21.97;10.40;;;;;;;3.83;85.72;99154.34;126818;1099;101936;-78
2023/11/29 11:20:55;;;;;;;20.97;9.90;;;;;;;3.85;86.27;99161.38;126129;1099;103966;-75
2023/11/29 11:23:28;;;;;;;20.40;9.50;;;;;;;3.86;84.26;99168.31;126203;1099;102683;-75
2023/11/29 11:26:11;;;;;;;20.43;9.83;;;;;;;3.86;85.29;99170.91;126241;1098;101965;-75
2023/11/29 11:29:00;;;;;;;20.62;9.83;;;;;;;3.87;84.45;99183.08;126933;1099;102003;-78
2023/11/29 11:31:34;;;;;;;18.07;9.17;;;;;;;3.87;84.42;99198.64;126882;1099;103074;-78
2023/11/29 11:34:14;;;;;;;20.70;10.13;;;;;;;3.93;84.07;99211.00;126078;1099;101662;-78
2023/11/29 11:36:50;;;;;;;21.70;9.80;;;;;;;3.95;84.87;99232.70;126834;1099;101780;-79
2023/11/29 11:39:25;;;;;;;18.57;9.37;;;;;;;3.94;85.19;99239.61;126491;1098;102502;-78
2023/11/29 11:41:58;;;;;;;19.70;10.10;;;;;;;3.91;83.30;99242.08;126940;1098;101892;-75